Time;durP1;ratioP1;P1;durP2;ratioP2;P2;SDS_P1;SDS_P2;PMS_P1;PMS_P2;Temp;Humidity;BMP_temperature;BMP_pressure;BME280_temperature;BME280_humidity;BME280_pressure;Samples;Min_cycle;Max_cycle;Signal;HPM_P1;HPM_P2
2022/03/09 00:00:17;;;;;;;39.28;27.27;;;;;;;1.97;100.00;100221.28;5033693;28;20487;-67
2022/03/09 00:02:42;;;;;;;40.55;27.58;;;;;;;2.28;100.00;100273.41;5024305;28;20499;-67
2022/03/09 00:05:08;;;;;;;44.03;27.90;;;;;;;2.03;100.00;100231.38;5053140;28;20091;-68
2022/03/09 00:07:34;;;;;;;39.78;27.35;;;;;;;2.20;100.00;100290.06;5053713;28;20107;-66
2022/03/09 00:09:59;;;;;;;39.63;26.80;;;;;;;1.88;100.00;100221.22;5035380;28;20025;-67
2022/03/09 00:12:25;;;;;;;40.70;27.83;;;;;;;1.97;100.00;100232.16;5035490;28;20509;-67
2022/03/09 00:14:50;;;;;;;39.20;26.85;;;;;;;2.14;100.00;100229.84;5035813;28;20069;-67
2022/03/09 00:17:16;;;;;;;39.85;27.52;;;;;;;2.00;100.00;100212.13;5052841;28;20037;-67
2022/03/09 00:19:41;;;;;;;38.75;26.13;;;;;;;2.20;100.00;100270.00;5053299;28;20029;-66
2022/03/09 00:22:07;;;;;;;39.97;27.75;;;;;;;2.22;100.00;100273.38;5053127;28;20060;-67
2022/03/09 00:24:32;;;;;;;39.83;26.73;;;;;;;2.41;100.00;100280.25;5052084;28;20449;-67
2022/03/09 00:26:59;;;;;;;41.47;28.25;;;;;;;2.29;100.00;100275.13;5052582;28;20037;-67
2022/03/09 00:29:25;;;;;;;40.13;27.60;;;;;;;2.04;100.00;100269.00;5053065;28;20411;-67
2022/03/09 00:31:51;;;;;;;41.22;27.75;;;;;;;2.23;100.00;100267.53;5034590;28;20114;-66
2022/03/09 00:34:16;;;;;;;39.60;26.95;;;;;;;2.12;100.00;100211.44;5052962;28;20479;-67
2022/03/09 00:36:42;;;;;;;42.65;27.70;;;;;;;2.50;100.00;100276.16;5034661;28;20110;-67
2022/03/09 00:39:07;;;;;;;39.40;27.52;;;;;;;2.17;100.00;100244.91;5035032;28;20071;-67
2022/03/09 00:41:33;;;;;;;39.60;27.40;;;;;;;2.04;100.00;100208.00;5034770;28;20025;-67
2022/03/09 00:43:58;;;;;;;40.20;27.65;;;;;;;2.08;100.00;100209.72;5052804;28;20025;-66
2022/03/09 00:46:24;;;;;;;41.85;27.85;;;;;;;2.14;100.00;100212.28;5052501;28;20163;-66
2022/03/09 00:48:49;;;;;;;41.20;26.58;;;;;;;2.14;100.00;100260.75;5053024;28;20033;-66
2022/03/09 00:51:14;;;;;;;41.70;28.10;;;;;;;2.19;100.00;100264.16;5034884;28;20029;-66
2022/03/09 00:53:40;;;;;;;39.00;26.58;;;;;;;1.99;100.00;100260.59;5052873;28;20047;-66
2022/03/09 00:56:06;;;;;;;36.95;26.05;;;;;;;2.07;100.00;100240.63;5052062;28;20411;-66
2022/03/09 00:58:31;;;;;;;36.47;25.88;;;;;;;2.30;100.00;100254.22;5034462;28;20067;-66
2022/03/09 01:03:32;;;;;;;38.15;25.52;;;;;;;2.13;100.00;100250.72;3937422;23;10000718;-77
2022/03/09 01:05:58;;;;;;;39.20;26.08;;;;;;;2.01;100.00;100250.56;5055240;28;20287;-77
2022/03/09 01:08:23;;;;;;;38.25;24.70;;;;;;;2.14;100.00;100250.72;5070528;28;20039;-75
2022/03/09 01:10:49;;;;;;;42.33;26.80;;;;;;;1.76;100.00;100221.91;5070559;28;20133;-73
2022/03/09 01:13:15;;;;;;;38.30;25.83;;;;;;;1.61;100.00;100227.59;5069791;28;20037;-76
2022/03/09 01:15:40;;;;;;;41.20;27.48;;;;;;;1.80;100.00;100262.88;5070038;28;20051;-77
2022/03/09 01:18:06;;;;;;;40.28;26.98;;;;;;;1.82;100.00;100234.53;5070059;28;20053;-74
2022/03/09 01:20:31;;;;;;;38.42;26.33;;;;;;;1.73;100.00;100220.22;5069905;28;20584;-73
2022/03/09 01:22:57;;;;;;;40.40;26.70;;;;;;;2.18;100.00;100247.41;5069576;28;20024;-76
2022/03/09 01:25:22;;;;;;;40.20;26.58;;;;;;;1.95;100.00;100265.53;5077084;28;20039;-77
2022/03/09 01:27:48;;;;;;;41.95;26.50;;;;;;;1.91;100.00;100257.16;5089546;28;20039;-75
2022/03/09 01:30:13;;;;;;;38.63;25.52;;;;;;;1.91;100.00;100261.31;5090217;28;20031;-76
2022/03/09 01:32:39;;;;;;;39.30;26.48;;;;;;;1.89;100.00;100226.22;5090186;28;20024;-74
2022/03/09 01:35:05;;;;;;;39.72;25.95;;;;;;;1.81;100.00;100229.47;5089692;28;20028;-76
2022/03/09 01:37:30;;;;;;;41.72;26.17;;;;;;;1.61;100.00;100219.22;5089882;28;20028;-76
2022/03/09 01:39:56;;;;;;;41.35;26.48;;;;;;;1.69;100.00;100217.66;5089614;28;20082;-71
2022/03/09 01:42:22;;;;;;;38.33;25.85;;;;;;;1.45;100.00;100210.69;5089815;28;20028;-74
2022/03/09 01:44:47;;;;;;;38.85;25.70;;;;;;;1.60;100.00;100240.09;5090360;28;20111;-77
2022/03/09 01:47:13;;;;;;;37.55;25.35;;;;;;;1.85;100.00;100238.69;5089603;28;20558;-75
2022/03/09 01:49:39;;;;;;;39.53;25.30;;;;;;;1.89;100.00;100238.75;5089494;28;20058;-77
2022/03/09 01:52:05;;;;;;;37.92;25.58;;;;;;;1.86;100.00;100245.41;5089474;28;20055;-76
2022/03/09 01:54:31;;;;;;;39.55;25.92;;;;;;;1.94;100.00;100243.84;5088718;28;20089;-77
2022/03/09 01:56:59;;;;;;;40.50;26.48;;;;;;;1.72;100.00;100245.25;5089697;28;20032;-76
2022/03/09 01:59:25;;;;;;;41.40;26.98;;;;;;;1.67;100.00;100235.19;5089491;28;20097;-75
2022/03/09 02:01:50;;;;;;;39.95;26.13;;;;;;;1.73;100.00;100246.94;5089068;28;20056;-73
2022/03/09 02:04:18;;;;;;;40.03;26.00;;;;;;;1.75;100.00;100250.28;5089196;28;20098;-77
2022/03/09 02:06:43;;;;;;;44.63;28.10;;;;;;;1.34;100.00;100223.91;5089689;28;20130;-76
2022/03/09 02:11:55;;;;;;;41.80;27.15;;;;;;;1.49;100.00;100256.63;5089990;28;20047;-77
2022/03/09 02:14:35;;;;;;;40.75;26.73;;;;;;;1.67;100.00;100249.34;5086554;28;20527;-76
2022/03/09 02:17:16;;;;;;;40.85;26.42;;;;;;;1.43;100.00;100216.50;5087439;28;20035;-76
2022/03/09 02:19:43;;;;;;;32.67;19.37;;;;;;;1.39;100.00;100199.75;5071056;28;20035;-74
2022/03/09 02:22:35;;;;;;;42.70;26.27;;;;;;;1.41;100.00;100246.53;5089139;28;20090;-77
2022/03/09 02:25:02;;;;;;;41.40;26.63;;;;;;;1.28;100.00;100171.25;5089101;28;20038;-75
2022/03/09 02:27:27;;;;;;;43.70;27.05;;;;;;;1.72;100.00;100237.75;5070669;28;20063;-73
2022/03/09 02:29:55;;;;;;;43.05;28.23;;;;;;;1.45;100.00;100239.91;5089321;28;20074;-78
2022/03/09 02:32:21;;;;;;;40.78;26.15;;;;;;;1.65;100.00;100241.84;5071521;28;20051;-76
2022/03/09 02:34:47;;;;;;;43.88;26.77;;;;;;;1.51;100.00;100230.81;5071113;28;20040;-77
2022/03/09 02:37:12;;;;;;;42.90;27.38;;;;;;;1.30;100.00;100238.06;5068462;28;20096;-72
2022/03/09 02:39:38;;;;;;;44.70;27.08;;;;;;;1.26;100.00;100182.91;5068317;28;20040;-77
2022/03/09 02:42:04;;;;;;;42.53;26.67;;;;;;;1.31;100.00;100203.81;5068378;28;20032;-74
2022/03/09 02:44:30;;;;;;;45.88;27.45;;;;;;;1.36;100.00;100230.63;5068719;28;20082;-77
2022/03/09 02:46:56;;;;;;;44.92;28.45;;;;;;;1.24;100.00;100237.97;5067933;28;20071;-77
2022/03/09 02:49:22;;;;;;;47.97;29.13;;;;;;;1.18;100.00;100192.81;5068754;28;20162;-74
2022/03/09 02:51:48;;;;;;;50.00;29.77;;;;;;;1.21;100.00;100232.09;5068456;28;20115;-74
2022/03/09 02:54:13;;;;;;;42.40;26.92;;;;;;;1.40;100.00;100239.84;5068318;28;20032;-76
2022/03/09 02:56:39;;;;;;;42.40;27.48;;;;;;;1.38;100.00;100208.94;5068617;28;20043;-77
2022/03/09 02:59:04;;;;;;;41.28;27.10;;;;;;;1.24;100.00;100179.53;5068251;28;20024;-74
2022/03/09 03:01:29;;;;;;;42.85;26.90;;;;;;;1.69;100.00;100241.03;5068554;28;20078;-75
2022/03/09 03:03:55;;;;;;;43.42;26.80;;;;;;;1.94;100.00;100237.13;5081729;28;20116;-76
2022/03/09 03:06:20;;;;;;;41.22;26.38;;;;;;;1.22;100.00;100246.28;5070620;28;20056;-76
2022/03/09 03:08:46;;;;;;;43.35;27.50;;;;;;;1.09;100.00;100239.44;5088868;28;20050;-71
2022/03/09 03:11:11;;;;;;;43.40;27.30;;;;;;;1.31;100.00;100247.22;5088694;28;20024;-76
2022/03/09 03:13:38;;;;;;;42.92;27.10;;;;;;;1.10;100.00;100239.44;5088376;28;20028;-75
2022/03/09 03:16:05;;;;;;;42.65;26.30;;;;;;;1.30;100.00;100238.06;5088016;28;20085;-74
2022/03/09 03:18:31;;;;;;;45.20;27.75;;;;;;;1.51;100.00;100244.97;5088259;28;20031;-74
2022/03/09 03:20:56;;;;;;;45.65;27.65;;;;;;;1.53;100.00;100248.34;5088864;28;20021;-75
2022/03/09 03:23:22;;;;;;;43.20;27.30;;;;;;;1.44;100.00;100213.19;5086756;28;20020;-75
2022/03/09 03:25:49;;;;;;;40.55;27.27;;;;;;;1.43;100.00;100203.97;5050620;28;20033;-76
2022/03/09 03:28:15;;;;;;;44.40;28.52;;;;;;;1.10;100.00;100204.41;5067670;28;20119;-69
2022/03/09 03:30:41;;;;;;;42.80;26.63;;;;;;;1.31;100.00;100213.84;5068203;28;20119;-76
2022/03/09 03:33:06;;;;;;;45.70;28.92;;;;;;;1.34;100.00;100207.22;5068065;28;20028;-76
2022/03/09 03:35:31;;;;;;;42.75;26.83;;;;;;;1.17;100.00;100206.16;5067766;28;20086;-72
2022/03/09 03:37:57;;;;;;;44.47;27.55;;;;;;;1.12;100.00;100209.41;5068121;28;20578;-76
2022/03/09 03:40:22;;;;;;;44.95;27.77;;;;;;;1.09;100.00;100205.19;5067380;28;20581;-77
2022/03/09 03:42:48;;;;;;;42.70;27.50;;;;;;;1.27;100.00;100239.69;5068186;28;20033;-74
2022/03/09 03:45:13;;;;;;;46.55;28.05;;;;;;;1.02;100.00;100200.94;5071879;28;20495;-75
2022/03/09 03:47:38;;;;;;;41.25;27.33;;;;;;;1.23;100.00;100198.72;5087431;28;20035;-77
2022/03/09 03:50:05;;;;;;;44.20;28.00;;;;;;;1.38;100.00;100233.13;5088275;28;20036;-75
2022/03/09 03:52:30;;;;;;;47.95;28.50;;;;;;;1.37;100.00;100229.78;5087536;28;20169;-76
2022/03/09 03:54:55;;;;;;;42.72;27.52;;;;;;;1.27;100.00;100210.47;5070001;28;20127;-77
2022/03/09 03:57:21;;;;;;;49.83;29.50;;;;;;;1.23;100.00;100200.41;5070136;28;20058;-73
2022/03/09 03:59:46;;;;;;;50.80;30.35;;;;;;;1.21;100.00;100217.06;5089672;28;20481;-71
2022/03/09 04:02:12;;;;;;;50.80;30.85;;;;;;;0.99;100.00;100190.06;5091296;28;20429;-77
2022/03/09 04:04:37;;;;;;;51.58;31.48;;;;;;;1.30;100.00;100225.53;5073569;28;20028;-70
2022/03/09 04:07:03;;;;;;;47.63;29.45;;;;;;;0.88;100.00;100195.75;5073902;28;20028;-75
2022/03/09 04:09:28;;;;;;;49.63;30.55;;;;;;;0.83;100.00;100184.00;5091876;28;20697;-75
2022/03/09 04:11:54;;;;;;;47.17;29.92;;;;;;;0.83;100.00;100176.50;5073779;28;20024;-76
2022/03/09 04:14:22;;;;;;;46.35;28.50;;;;;;;0.99;100.00;100213.41;5090881;28;20099;-76
2022/03/09 04:16:50;;;;;;;43.90;27.33;;;;;;;1.16;100.00;100223.66;5073504;28;20028;-75
2022/03/09 04:19:16;;;;;;;44.58;28.38;;;;;;;0.80;100.00;100188.97;5091860;28;20032;-74
2022/03/09 04:21:42;;;;;;;45.17;27.48;;;;;;;1.21;100.00;100190.34;5091359;28;20028;-76
2022/03/09 04:24:07;;;;;;;41.03;26.05;;;;;;;0.82;100.00;100222.34;5073654;28;20032;-76
2022/03/09 04:26:33;;;;;;;46.67;28.13;;;;;;;1.03;100.00;100221.81;5089976;28;20098;-74
2022/03/09 04:28:59;;;;;;;52.85;30.80;;;;;;;0.83;100.00;100202.34;5079624;28;20081;-74
2022/03/09 04:31:25;;;;;;;53.95;30.48;;;;;;;0.67;100.00;100232.94;5071553;28;20040;-77
2022/03/09 04:33:50;;;;;;;51.17;30.65;;;;;;;0.97;100.00;100232.56;5053344;28;20115;-76
2022/03/09 04:36:16;;;;;;;44.58;27.65;;;;;;;1.06;100.00;100227.69;5070595;28;20082;-77
2022/03/09 04:38:41;;;;;;;44.03;27.05;;;;;;;1.03;100.00;100234.34;5070333;28;20024;-75
2022/03/09 04:41:07;;;;;;;43.55;26.70;;;;;;;0.87;100.00;100226.59;5079220;28;20111;-76
2022/03/09 04:43:32;;;;;;;40.72;26.05;;;;;;;0.60;100.00;100200.31;5091138;28;20043;-76
2022/03/09 04:45:58;;;;;;;42.05;25.85;;;;;;;0.65;100.00;100194.56;5091413;28;20040;-75
2022/03/09 04:48:24;;;;;;;40.88;25.88;;;;;;;0.94;100.00;100224.19;5072879;28;20024;-74
2022/03/09 04:50:49;;;;;;;42.28;25.60;;;;;;;0.40;100.00;100180.00;5090154;28;20552;-76
2022/03/09 04:53:15;;;;;;;43.65;26.88;;;;;;;1.02;100.00;100232.63;5074569;28;20111;-75
2022/03/09 04:55:40;;;;;;;40.17;25.70;;;;;;;0.89;100.00;100201.63;5070282;28;20036;-72
2022/03/09 04:58:06;;;;;;;41.83;25.63;;;;;;;1.00;100.00;100236.78;5069297;28;20024;-74
2022/03/09 05:00:31;;;;;;;45.92;28.50;;;;;;;0.89;100.00;100196.63;5052582;28;20105;-74
2022/03/09 05:02:57;;;;;;;46.28;29.42;;;;;;;1.10;100.00;100236.94;5088525;28;20036;-74
2022/03/09 05:05:22;;;;;;;46.63;29.08;;;;;;;1.16;100.00;100238.69;5056160;28;20033;-77
2022/03/09 05:07:48;;;;;;;43.53;27.48;;;;;;;1.02;100.00;100242.63;5079346;28;20028;-77
2022/03/09 05:10:13;;;;;;;42.28;26.55;;;;;;;2.80;100.00;100235.41;5093544;28;20024;-76
2022/03/09 05:12:39;;;;;;;43.38;26.30;;;;;;;1.03;100.00;100180.09;5075603;28;20026;-75
2022/03/09 05:15:05;;;;;;;40.28;25.98;;;;;;;1.06;100.00;100220.19;5075710;28;20026;-73
2022/03/09 05:17:31;;;;;;;42.67;26.75;;;;;;;2.08;100.00;100239.81;5075739;28;20118;-72
2022/03/09 05:19:57;;;;;;;40.15;25.92;;;;;;;1.41;100.00;100263.22;5093207;28;20499;-76
2022/03/09 05:22:23;;;;;;;41.25;26.08;;;;;;;1.36;100.00;100229.78;5093647;28;20122;-75
2022/03/09 05:24:48;;;;;;;40.78;25.83;;;;;;;1.25;100.00;100227.13;5093398;28;20035;-77
2022/03/09 05:27:14;;;;;;;38.97;25.85;;;;;;;1.29;100.00;100233.03;5092983;28;20032;-72
2022/03/09 05:29:40;;;;;;;40.05;25.50;;;;;;;1.44;100.00;100208.16;5093316;28;20031;-78
2022/03/09 05:32:06;;;;;;;37.28;23.77;;;;;;;1.48;100.00;100230.78;5093412;28;20024;-76
2022/03/09 05:34:32;;;;;;;36.92;24.13;;;;;;;1.77;100.00;100234.47;5093443;28;20031;-72
2022/03/09 05:36:57;;;;;;;38.65;24.55;;;;;;;1.71;100.00;100238.56;5074690;28;20024;-71
2022/03/09 05:39:23;;;;;;;41.33;25.65;;;;;;;1.72;100.00;100272.81;5092624;28;20044;-69
2022/03/09 05:41:48;;;;;;;41.30;26.10;;;;;;;1.77;100.00;100244.47;5092050;28;20035;-70
2022/03/09 05:44:14;;;;;;;42.67;26.08;;;;;;;1.82;100.00;100201.94;5074972;28;20032;-71
2022/03/09 05:46:40;;;;;;;44.38;27.40;;;;;;;1.73;100.00;100239.41;5091974;28;20057;-74
2022/03/09 05:49:05;;;;;;;40.70;26.40;;;;;;;1.73;100.00;100241.91;5091713;28;20028;-69
2022/03/09 05:51:31;;;;;;;39.13;25.98;;;;;;;1.51;100.00;100225.78;5091103;28;20028;-70
2022/03/09 05:53:57;;;;;;;38.22;25.08;;;;;;;1.96;100.00;100244.69;5072903;28;20031;-70
2022/03/09 05:56:23;;;;;;;36.58;23.75;;;;;;;2.09;100.00;100277.41;5091821;28;20031;-71
2022/03/09 05:58:48;;;;;;;35.70;23.95;;;;;;;1.98;100.00;100258.06;5091764;28;20467;-72
2022/03/09 06:01:14;;;;;;;37.90;25.30;;;;;;;2.34;100.00;100250.91;5090245;28;20043;-74
2022/03/09 06:03:39;;;;;;;36.92;23.90;;;;;;;2.18;100.00;100279.19;5091498;28;20529;-74
2022/03/09 06:06:04;;;;;;;39.75;24.63;;;;;;;2.28;100.00;100250.84;5092559;28;20418;-74
2022/03/09 06:08:31;;;;;;;37.60;24.20;;;;;;;2.70;100.00;100286.34;5091918;28;20035;-75
2022/03/09 06:10:57;;;;;;;38.80;24.77;;;;;;;2.54;100.00;100284.53;5091837;28;20166;-73
2022/03/09 06:13:22;;;;;;;37.95;24.13;;;;;;;2.60;100.00;100282.09;5091849;28;20490;-72
2022/03/09 06:15:49;;;;;;;34.92;23.90;;;;;;;2.66;100.00;100292.19;5073738;28;20055;-72
2022/03/09 06:18:15;;;;;;;34.17;23.48;;;;;;;2.72;100.00;100264.63;5091591;28;20036;-74
2022/03/09 06:20:41;;;;;;;37.35;25.17;;;;;;;2.88;100.00;100296.56;5092189;28;20039;-72
2022/03/09 06:23:06;;;;;;;38.00;24.73;;;;;;;2.76;100.00;100260.47;5091418;28;20036;-68
2022/03/09 06:25:32;;;;;;;35.95;23.73;;;;;;;2.96;100.00;100282.38;5074052;28;20131;-73
2022/03/09 06:27:58;;;;;;;35.78;23.40;;;;;;;3.01;100.00;100287.47;5092581;28;20068;-73
2022/03/09 06:30:24;;;;;;;36.42;24.38;;;;;;;3.11;100.00;100291.72;5092760;28;20024;-74
2022/03/09 06:32:49;;;;;;;35.00;23.40;;;;;;;3.37;100.00;100243.31;5092204;28;20031;-74
2022/03/09 06:35:16;;;;;;;34.83;23.08;;;;;;;3.42;100.00;100274.31;5092176;28;20518;-72
2022/03/09 06:37:41;;;;;;;34.80;23.30;;;;;;;3.48;100.00;100268.50;5092482;28;20070;-72
2022/03/09 06:40:08;;;;;;;33.25;23.55;;;;;;;4.10;100.00;100296.41;5091871;28;20055;-72
2022/03/09 06:42:34;;;;;;;35.65;22.67;;;;;;;3.31;100.00;100265.88;5092093;28;20459;-72
2022/03/09 06:45:00;;;;;;;48.13;32.08;;;;;;;3.75;100.00;100296.25;5092057;28;20032;-73
2022/03/09 06:47:26;;;;;;;32.83;23.38;;;;;;;4.00;100.00;100280.41;5092328;28;20489;-74
2022/03/09 06:49:52;;;;;;;33.55;22.40;;;;;;;4.77;100.00;100289.81;5091756;28;20493;-70
2022/03/09 06:52:18;;;;;;;35.15;23.65;;;;;;;4.21;100.00;100298.09;5092034;28;20036;-72
2022/03/09 06:54:43;;;;;;;35.03;24.15;;;;;;;4.50;100.00;100273.00;5091846;28;20390;-71
2022/03/09 06:57:09;;;;;;;35.83;25.00;;;;;;;4.70;100.00;100294.00;5091978;28;20050;-70
2022/03/09 06:59:34;;;;;;;35.67;24.98;;;;;;;4.92;100.00;100267.13;5091858;28;20047;-74
2022/03/09 07:01:59;;;;;;;40.20;25.15;;;;;;;5.60;100.00;100267.00;5092009;28;20048;-72
2022/03/09 07:04:25;;;;;;;33.25;22.77;;;;;;;4.72;100.00;100293.97;5091783;28;20028;-74
2022/03/09 07:06:51;;;;;;;30.45;21.92;;;;;;;5.32;100.00;100295.63;5091765;28;20024;-74
2022/03/09 07:09:17;;;;;;;30.73;21.80;;;;;;;5.41;100.00;100280.50;5091385;28;20115;-71
2022/03/09 07:11:43;;;;;;;33.65;22.17;;;;;;;4.74;100.00;100297.34;5091242;28;20036;-68
2022/03/09 07:14:10;;;;;;;31.42;21.48;;;;;;;4.80;100.00;100282.22;5090858;28;20048;-66
2022/03/09 07:16:36;;;;;;;28.30;20.63;;;;;;;4.99;100.00;100312.44;5091244;28;20028;-70
2022/03/09 07:19:02;;;;;;;28.73;20.98;;;;;;;4.83;100.00;100272.19;5090896;28;20039;-70
2022/03/09 07:21:27;;;;;;;28.33;20.17;;;;;;;4.92;100.00;100290.63;5072897;28;20090;-69
2022/03/09 07:23:53;;;;;;;28.55;20.98;;;;;;;4.35;100.00;100271.31;5090633;28;20054;-70
2022/03/09 07:26:19;;;;;;;28.95;21.00;;;;;;;4.78;100.00;100309.94;5073059;28;20118;-70
2022/03/09 07:28:44;;;;;;;28.83;21.05;;;;;;;4.80;100.00;100285.59;5072885;28;20035;-70
2022/03/09 07:31:10;;;;;;;38.78;25.38;;;;;;;5.06;100.00;100281.41;5090725;28;20028;-71
2022/03/09 07:33:35;;;;;;;32.45;21.95;;;;;;;5.62;100.00;100308.16;5092774;28;20515;-70
2022/03/09 07:36:01;;;;;;;29.85;20.75;;;;;;;5.73;100.00;100279.56;5094885;28;20039;-70
2022/03/09 07:38:28;;;;;;;50.13;28.95;;;;;;;5.76;100.00;100311.50;5094405;28;20107;-68
2022/03/09 07:40:53;;;;;;;27.65;20.38;;;;;;;6.18;100.00;100321.44;5094824;28;20522;-71
2022/03/09 07:43:19;;;;;;;29.17;21.85;;;;;;;5.85;100.00;100284.59;5094815;28;20028;-70
2022/03/09 07:45:45;;;;;;;27.13;19.20;;;;;;;5.91;100.00;100292.13;5074600;28;20418;-70
2022/03/09 07:48:10;;;;;;;26.02;19.42;;;;;;;6.08;100.00;100310.53;5094419;28;20024;-70
2022/03/09 07:50:36;;;;;;;37.22;25.77;;;;;;;6.12;100.00;100296.22;5094256;28;20032;-70
2022/03/09 07:53:03;;;;;;;27.52;20.67;;;;;;;5.58;100.00;100303.97;5075525;28;20025;-69
2022/03/09 07:55:28;;;;;;;26.23;19.90;;;;;;;5.71;100.00;100283.75;5094312;28;20061;-70
2022/03/09 07:57:54;;;;;;;28.13;20.88;;;;;;;5.55;100.00;100289.69;5094199;28;20032;-69
2022/03/09 08:00:19;;;;;;;34.58;23.75;;;;;;;5.59;100.00;100306.50;5094091;28;20028;-69
2022/03/09 08:02:45;;;;;;;27.65;19.48;;;;;;;5.64;100.00;100309.84;5094101;28;20039;-70
2022/03/09 08:05:11;;;;;;;32.78;23.48;;;;;;;5.79;100.00;100307.28;5094388;28;20032;-70
2022/03/09 08:07:36;;;;;;;29.02;20.52;;;;;;;6.42;100.00;100280.09;5093711;28;20119;-72
2022/03/09 08:10:02;;;;;;;30.85;21.45;;;;;;;6.48;100.00;100292.66;5094350;28;20141;-71
2022/03/09 08:12:28;;;;;;;33.97;21.63;;;;;;;6.29;98.51;100291.09;5094592;28;20028;-71
2022/03/09 08:14:53;;;;;;;30.65;20.27;;;;;;;6.74;94.81;100261.31;5094025;28;20035;-68
2022/03/09 08:17:19;;;;;;;28.38;20.60;;;;;;;6.67;93.06;100297.59;5094267;28;20031;-70
2022/03/09 08:19:45;;;;;;;28.95;20.58;;;;;;;6.27;93.20;100288.59;5094628;28;20032;-68
2022/03/09 08:22:11;;;;;;;29.58;20.17;;;;;;;6.92;94.27;100288.97;5076539;28;20036;-70
2022/03/09 08:24:36;;;;;;;29.83;21.90;;;;;;;6.24;99.28;100287.75;5094338;28;20095;-70
2022/03/09 08:27:03;;;;;;;30.67;21.25;;;;;;;6.13;97.78;100282.75;5094086;28;20040;-71
2022/03/09 08:29:28;;;;;;;25.90;18.75;;;;;;;6.24;99.92;100281.00;5093795;28;20119;-70
2022/03/09 08:31:54;;;;;;;36.05;24.60;;;;;;;6.93;95.44;100277.97;5093937;28;20161;-70
2022/03/09 08:34:19;;;;;;;22.40;17.25;;;;;;;7.16;87.85;100256.72;5094119;28;20024;-70
2022/03/09 08:36:44;;;;;;;23.63;18.02;;;;;;;7.69;85.04;100270.47;5093800;28;20097;-69
2022/03/09 08:39:10;;;;;;;25.08;18.25;;;;;;;6.27;86.96;100270.06;5093709;28;20024;-73
2022/03/09 08:41:36;;;;;;;29.80;22.17;;;;;;;5.88;93.92;100269.41;5094005;28;20089;-70
2022/03/09 08:44:02;;;;;;;24.83;18.73;;;;;;;6.44;91.34;100263.25;5075387;28;20130;-70
2022/03/09 08:46:28;;;;;;;29.02;21.80;;;;;;;5.90;91.83;100261.88;5093233;28;20035;-70
2022/03/09 08:48:53;;;;;;;28.80;21.42;;;;;;;6.76;94.54;100282.34;5093628;28;20024;-70
2022/03/09 08:51:20;;;;;;;31.73;23.95;;;;;;;6.23;95.78;100268.41;5093075;28;20032;-67
2022/03/09 08:53:46;;;;;;;31.48;23.13;;;;;;;7.46;94.20;100274.13;5093426;28;20039;-70
2022/03/09 08:56:11;;;;;;;25.52;19.33;;;;;;;6.91;90.22;100273.81;5093503;28;20036;-67
2022/03/09 08:58:37;;;;;;;26.98;19.48;;;;;;;6.99;88.57;100267.81;5093353;28;20494;-69
2022/03/09 09:01:03;;;;;;;23.48;17.63;;;;;;;6.50;86.69;100258.97;5094051;28;20068;-73
2022/03/09 09:03:29;;;;;;;26.13;19.40;;;;;;;6.23;93.59;100278.50;5093418;28;20047;-77
2022/03/09 09:05:54;;;;;;;23.13;18.33;;;;;;;5.71;92.70;100238.38;5093272;28;20032;-72
2022/03/09 09:08:20;;;;;;;30.80;21.15;;;;;;;6.68;97.13;100241.16;5092941;28;20478;-71
2022/03/09 09:10:46;;;;;;;27.45;20.70;;;;;;;7.62;90.85;100247.81;5092805;28;20107;-73
2022/03/09 09:13:12;;;;;;;27.00;19.95;;;;;;;6.99;88.43;100262.78;5093298;28;20409;-73
2022/03/09 09:15:38;;;;;;;32.28;20.25;;;;;;;7.74;89.08;100242.59;5093403;28;20077;-73
2022/03/09 09:18:05;;;;;;;31.35;22.38;;;;;;;6.71;90.82;100273.97;5093260;28;20142;-73
2022/03/09 09:20:31;;;;;;;28.38;20.20;;;;;;;7.84;87.73;100244.16;5093008;28;20129;-72
2022/03/09 09:22:57;;;;;;;25.67;19.00;;;;;;;6.70;88.40;100257.13;5092728;28;20090;-72
2022/03/09 09:25:24;;;;;;;24.88;18.65;;;;;;;8.42;79.65;100239.97;5093205;28;20039;-74
2022/03/09 09:27:50;;;;;;;27.42;20.75;;;;;;;7.68;76.89;100238.44;5089456;28;20119;-73
2022/03/09 09:30:16;;;;;;;100.40;50.40;;;;;;;7.73;80.31;100253.56;5091264;28;20024;-74
2022/03/09 09:32:42;;;;;;;39.22;25.75;;;;;;;8.36;81.21;100267.94;5093329;28;20026;-71
2022/03/09 09:35:08;;;;;;;24.27;18.73;;;;;;;7.97;77.77;100275.19;5093083;28;20054;-71
2022/03/09 09:37:33;;;;;;;23.80;16.95;;;;;;;9.42;70.36;100273.78;5093428;28;20035;-72
2022/03/09 09:39:59;;;;;;;21.13;16.13;;;;;;;9.34;64.67;100265.47;5093034;28;20032;-74
2022/03/09 09:42:30;;;;;;;19.38;15.32;;;;;;;10.05;62.14;100218.31;4830181;28;10000556;-74
2022/03/09 09:44:58;;;;;;;27.48;19.20;;;;;;;8.66;66.29;100256.50;5078545;28;20264;-71
2022/03/09 09:47:24;;;;;;;68.57;41.00;;;;;;;10.07;62.24;100207.25;5071955;28;20028;-70
2022/03/09 09:49:52;;;;;;;21.05;16.70;;;;;;;9.20;62.58;100237.81;5067954;28;20028;-71
2022/03/09 09:52:19;;;;;;;18.73;15.52;;;;;;;8.04;65.04;100234.63;5056172;28;20415;-70
2022/03/09 09:54:48;;;;;;;31.20;21.77;;;;;;;7.94;67.12;100237.28;5084765;28;20047;-69
2022/03/09 09:57:15;;;;;;;23.08;16.45;;;;;;;6.84;70.49;100269.66;5087403;28;20020;-70
2022/03/09 09:59:40;;;;;;;31.15;19.38;;;;;;;7.08;69.86;100277.03;5088389;28;20122;-69
2022/03/09 10:02:07;;;;;;;18.85;14.95;;;;;;;7.55;70.46;100233.53;5088361;28;20126;-70
2022/03/09 10:04:33;;;;;;;24.00;18.35;;;;;;;6.90;71.82;100247.69;5087965;28;20032;-68
2022/03/09 10:06:58;;;;;;;19.10;15.20;;;;;;;6.32;71.77;100245.66;5087997;28;20335;-70
2022/03/09 10:09:36;;;;;;;21.58;15.43;;;;;;;6.39;80.43;100272.50;5088093;28;20111;-69
2022/03/09 10:12:04;;;;;;;22.25;15.85;;;;;;;6.14;78.23;100257.50;5088714;28;20032;-69
2022/03/09 10:14:44;;;;;;;19.98;15.82;;;;;;;6.59;78.76;100266.50;5088795;28;20024;-71
2022/03/09 10:17:11;;;;;;;97.95;51.20;;;;;;;7.27;79.16;100217.84;5088273;28;20111;-68
2022/03/09 10:19:40;;;;;;;23.85;16.20;;;;;;;6.24;74.02;100245.69;5087752;28;20517;-68
2022/03/09 10:22:41;;;;;;;22.85;17.27;;;;;;;9.41;67.12;100247.56;5088037;28;20127;-68
2022/03/09 10:25:09;;;;;;;21.55;16.25;;;;;;;8.72;61.96;100246.25;5087980;28;20028;-69
2022/03/09 10:27:37;;;;;;;20.30;15.13;;;;;;;8.34;60.63;100249.38;5087840;28;20099;-71
2022/03/09 10:30:11;;;;;;;29.40;20.70;;;;;;;8.42;66.25;100229.00;5088129;28;20016;-70
2022/03/09 10:32:52;;;;;;;29.02;19.88;;;;;;;8.53;70.00;100247.41;5087214;28;20035;-69
2022/03/09 10:35:38;;;;;;;24.83;19.05;;;;;;;7.42;76.17;100235.38;5088011;28;20482;-68
2022/03/09 10:38:06;;;;;;;22.23;16.85;;;;;;;7.44;73.40;100192.38;5069554;28;20035;-68
2022/03/09 10:40:40;;;;;;;24.15;16.98;;;;;;;6.49;79.39;100227.00;5087685;28;20028;-69
2022/03/09 10:43:12;;;;;;;33.25;21.80;;;;;;;7.60;73.59;100206.50;5087555;28;20023;-71
2022/03/09 10:46:00;;;;;;;23.73;17.55;;;;;;;9.45;67.35;100239.03;5087906;28;20534;-70
2022/03/09 10:49:00;;;;;;;34.97;22.63;;;;;;;8.75;67.45;100241.97;5071879;28;20051;-69
2022/03/09 10:51:27;;;;;;;24.05;17.50;;;;;;;9.41;60.13;100237.41;5080591;28;20036;-71
2022/03/09 10:53:52;;;;;;;20.85;16.17;;;;;;;7.93;58.01;100206.06;5088132;28;20111;-73
2022/03/09 10:56:21;;;;;;;20.15;15.20;;;;;;;9.26;56.05;100224.19;5087592;28;20030;-70
2022/03/09 10:58:46;;;;;;;16.40;13.30;;;;;;;9.11;53.02;100225.28;5069470;28;20032;-71
2022/03/09 11:01:17;;;;;;;18.80;14.07;;;;;;;9.95;50.23;100214.31;5087852;28;20473;-69
2022/03/09 11:03:43;;;;;;;34.13;20.15;;;;;;;8.49;53.63;100201.03;5087317;28;20040;-70
2022/03/09 11:06:10;;;;;;;23.00;16.25;;;;;;;10.36;51.95;100176.97;5087422;28;20024;-69
2022/03/09 11:08:37;;;;;;;18.75;14.90;;;;;;;10.53;48.39;100176.56;5086900;28;20478;-68
2022/03/09 11:11:05;;;;;;;21.25;15.73;;;;;;;10.68;50.09;100167.69;5069486;28;20032;-66
2022/03/09 11:13:35;;;;;;;16.15;12.90;;;;;;;11.05;49.23;100186.25;5087367;28;20472;-70